sensor_id;sensor_type;location;lat;lon;timestamp;pressure;altitude;pressure_sealevel;temperature;humidity
40920;BME280;26652;50.280;19.026;2022-08-16T00:02:01;97587.00;;;21.49;97.88
40920;BME280;26652;50.280;19.026;2022-08-16T00:04:22;97581.28;;;21.52;97.83
40920;BME280;26652;50.280;19.026;2022-08-16T00:06:45;97570.97;;;21.42;98.45
40920;BME280;26652;50.280;19.026;2022-08-16T00:09:21;97595.25;;;21.57;98.68
40920;BME280;26652;50.280;19.026;2022-08-16T00:11:30;97580.31;;;21.43;100.00
40920;BME280;26652;50.280;19.026;2022-08-16T00:13:45;97573.59;;;21.37;100.00
40920;BME280;26652;50.280;19.026;2022-08-16T00:16:04;97578.25;;;21.40;100.00
40920;BME280;26652;50.280;19.026;2022-08-16T00:18:28;97582.66;;;21.40;100.00
40920;BME280;26652;50.280;19.026;2022-08-16T00:20:51;97577.78;;;21.33;100.00
40920;BME280;26652;50.280;19.026;2022-08-16T00:23:15;97578.00;;;21.37;100.00
40920;BME280;26652;50.280;19.026;2022-08-16T00:25:37;97577.03;;;21.28;100.00
40920;BME280;26652;50.280;19.026;2022-08-16T00:28:00;97580.13;;;21.30;100.00
40920;BME280;26652;50.280;19.026;2022-08-16T00:30:32;97577.22;;;21.36;100.00
40920;BME280;26652;50.280;19.026;2022-08-16T00:32:55;97576.50;;;21.20;100.00
40920;BME280;26652;50.280;19.026;2022-08-16T00:35:23;97569.78;;;21.19;100.00
40920;BME280;26652;50.280;19.026;2022-08-16T00:37:46;97574.97;;;21.19;100.00
40920;BME280;26652;50.280;19.026;2022-08-16T00:43:03;97571.09;;;21.22;100.00
40920;BME280;26652;50.280;19.026;2022-08-16T00:45:56;97572.91;;;21.21;100.00
40920;BME280;26652;50.280;19.026;2022-08-16T00:48:18;97572.63;;;21.18;100.00
40920;BME280;26652;50.280;19.026;2022-08-16T00:50:42;97572.63;;;21.18;100.00
40920;BME280;26652;50.280;19.026;2022-08-16T00:53:07;97575.75;;;21.25;100.00
40920;BME280;26652;50.280;19.026;2022-08-16T00:55:38;97567.19;;;21.19;100.00
40920;BME280;26652;50.280;19.026;2022-08-16T00:57:59;97565.16;;;21.11;100.00
40920;BME280;26652;50.280;19.026;2022-08-16T01:00:24;97574.47;;;21.17;100.00
40920;BME280;26652;50.280;19.026;2022-08-16T01:02:45;97569.03;;;21.14;100.00
40920;BME280;26652;50.280;19.026;2022-08-16T01:05:24;97574.78;;;21.06;100.00
40920;BME280;26652;50.280;19.026;2022-08-16T01:07:34;97571.19;;;20.97;100.00
40920;BME280;26652;50.280;19.026;2022-08-16T01:09:46;97586.47;;;20.93;100.00
40920;BME280;26652;50.280;19.026;2022-08-16T01:12:09;97583.88;;;20.93;100.00
40920;BME280;26652;50.280;19.026;2022-08-16T01:14:34;97584.66;;;20.94;100.00
40920;BME280;26652;50.280;19.026;2022-08-16T01:16:56;97600.97;;;20.89;100.00
40920;BME280;26652;50.280;19.026;2022-08-16T01:19:57;97596.12;;;20.77;100.00
40920;BME280;26652;50.280;19.026;2022-08-16T01:22:24;97599.16;;;20.84;100.00
40920;BME280;26652;50.280;19.026;2022-08-16T01:25:00;97598.41;;;20.84;100.00
40920;BME280;26652;50.280;19.026;2022-08-16T01:27:14;97601.56;;;20.71;100.00
40920;BME280;26652;50.280;19.026;2022-08-16T01:29:31;97588.91;;;20.69;100.00
40920;BME280;26652;50.280;19.026;2022-08-16T01:31:53;97593.00;;;20.75;100.00
40920;BME280;26652;50.280;19.026;2022-08-16T01:34:17;97587.28;;;20.83;100.00
40920;BME280;26652;50.280;19.026;2022-08-16T01:36:37;97586.75;;;20.81;100.00
40920;BME280;26652;50.280;19.026;2022-08-16T01:39:14;97581.91;;;20.70;100.00
40920;BME280;26652;50.280;19.026;2022-08-16T01:41:38;97577.00;;;20.63;100.00
40920;BME280;26652;50.280;19.026;2022-08-16T01:43:58;97589.94;;;20.68;100.00
40920;BME280;26652;50.280;19.026;2022-08-16T01:46:46;97585.31;;;20.50;100.00
40920;BME280;26652;50.280;19.026;2022-08-16T01:49:18;97582.97;;;20.59;100.00
40920;BME280;26652;50.280;19.026;2022-08-16T01:51:40;97603.41;;;20.60;100.00
40920;BME280;26652;50.280;19.026;2022-08-16T01:54:04;97593.59;;;20.57;100.00
40920;BME280;26652;50.280;19.026;2022-08-16T01:56:24;97598.00;;;20.51;100.00
40920;BME280;26652;50.280;19.026;2022-08-16T01:58:49;97600.31;;;20.53;100.00
40920;BME280;26652;50.280;19.026;2022-08-16T02:01:08;97600.56;;;20.51;100.00
40920;BME280;26652;50.280;19.026;2022-08-16T02:03:35;97598.50;;;20.53;100.00
40920;BME280;26652;50.280;19.026;2022-08-16T02:06:00;97590.22;;;20.51;100.00
40920;BME280;26652;50.280;19.026;2022-08-16T02:08:39;97608.31;;;20.62;100.00
40920;BME280;26652;50.280;19.026;2022-08-16T02:10:57;97587.38;;;20.53;100.00
40920;BME280;26652;50.280;19.026;2022-08-16T02:13:12;97594.38;;;20.42;100.00
40920;BME280;26652;50.280;19.026;2022-08-16T02:15:35;97592.03;;;20.36;100.00
40920;BME280;26652;50.280;19.026;2022-08-16T02:17:47;97593.59;;;20.32;100.00
40920;BME280;26652;50.280;19.026;2022-08-16T02:19:56;97593.84;;;20.35;100.00
40920;BME280;26652;50.280;19.026;2022-08-16T02:22:07;97592.28;;;20.34;100.00
40920;BME280;26652;50.280;19.026;2022-08-16T02:24:19;97591.53;;;20.39;100.00
40920;BME280;26652;50.280;19.026;2022-08-16T02:26:27;97588.16;;;20.28;100.00
40920;BME280;26652;50.280;19.026;2022-08-16T02:28:38;97594.38;;;20.17;100.00
40920;BME280;26652;50.280;19.026;2022-08-16T02:30:47;97594.13;;;20.08;100.00
40920;BME280;26652;50.280;19.026;2022-08-16T02:32:55;97602.66;;;20.09;100.00
40920;BME280;26652;50.280;19.026;2022-08-16T02:35:10;97604.47;;;20.08;100.00
40920;BME280;26652;50.280;19.026;2022-08-16T02:37:16;97600.59;;;20.16;100.00
40920;BME280;26652;50.280;19.026;2022-08-16T02:39:35;97606.78;;;20.25;100.00
40920;BME280;26652;50.280;19.026;2022-08-16T02:41:50;97605.50;;;20.22;100.00
40920;BME280;26652;50.280;19.026;2022-08-16T02:43:56;97604.19;;;20.30;100.00
40920;BME280;26652;50.280;19.026;2022-08-16T02:46:06;97601.88;;;20.29;100.00
40920;BME280;26652;50.280;19.026;2022-08-16T02:48:21;97608.31;;;20.26;100.00
40920;BME280;26652;50.280;19.026;2022-08-16T02:50:30;97610.91;;;20.31;100.00
40920;BME280;26652;50.280;19.026;2022-08-16T02:52:39;97615.06;;;20.07;100.00
40920;BME280;26652;50.280;19.026;2022-08-16T02:54:52;97598.25;;;19.99;100.00
40920;BME280;26652;50.280;19.026;2022-08-16T02:57:03;97608.34;;;20.06;100.00
40920;BME280;26652;50.280;19.026;2022-08-16T02:59:09;97598.50;;;20.03;100.00
40920;BME280;26652;50.280;19.026;2022-08-16T03:01:26;97605.75;;;20.01;100.00
40920;BME280;26652;50.280;19.026;2022-08-16T03:03:32;97600.84;;;19.94;100.00
40920;BME280;26652;50.280;19.026;2022-08-16T03:05:41;97602.38;;;20.05;100.00
40920;BME280;26652;50.280;19.026;2022-08-16T03:08:04;97597.75;;;20.02;100.00
40920;BME280;26652;50.280;19.026;2022-08-16T03:10:13;97593.88;;;20.05;100.00
40920;BME280;26652;50.280;19.026;2022-08-16T03:12:22;97587.41;;;20.07;100.00
40920;BME280;26652;50.280;19.026;2022-08-16T03:14:35;97585.06;;;19.90;100.00
40920;BME280;26652;50.280;19.026;2022-08-16T03:16:44;97581.72;;;19.80;100.00
40920;BME280;26652;50.280;19.026;2022-08-16T03:18:53;97585.84;;;19.91;100.00
40920;BME280;26652;50.280;19.026;2022-08-16T03:21:03;97593.59;;;19.91;100.00
40920;BME280;26652;50.280;19.026;2022-08-16T03:23:21;97586.38;;;19.93;100.00
40920;BME280;26652;50.280;19.026;2022-08-16T03:25:30;97593.59;;;19.86;100.00
40920;BME280;26652;50.280;19.026;2022-08-16T03:27:53;97591.03;;;19.76;100.00
40920;BME280;26652;50.280;19.026;2022-08-16T03:30:25;97593.34;;;19.72;100.00
40920;BME280;26652;50.280;19.026;2022-08-16T03:32:48;97598.00;;;19.85;100.00
40920;BME280;26652;50.280;19.026;2022-08-16T03:35:11;97599.03;;;19.74;100.00
40920;BME280;26652;50.280;19.026;2022-08-16T03:37:34;97604.97;;;19.75;100.00
40920;BME280;26652;50.280;19.026;2022-08-16T03:40:10;97600.06;;;19.63;100.00
40920;BME280;26652;50.280;19.026;2022-08-16T03:42:31;97587.91;;;19.53;100.00
40920;BME280;26652;50.280;19.026;2022-08-16T03:44:54;97593.53;;;19.45;100.00
40920;BME280;26652;50.280;19.026;2022-08-16T03:47:26;97595.91;;;19.52;100.00
40920;BME280;26652;50.280;19.026;2022-08-16T03:49:41;97601.09;;;19.62;100.00
40920;BME280;26652;50.280;19.026;2022-08-16T03:51:54;97610.13;;;19.70;100.00
40920;BME280;26652;50.280;19.026;2022-08-16T03:54:21;97603.16;;;19.65;100.00
40920;BME280;26652;50.280;19.026;2022-08-16T03:56:44;97607.81;;;19.68;100.00
40920;BME280;26652;50.280;19.026;2022-08-16T03:59:17;97609.88;;;19.71;100.00
40920;BME280;26652;50.280;19.026;2022-08-16T04:01:46;97607.28;;;19.76;100.00
40920;BME280;26652;50.280;19.026;2022-08-16T04:04:12;97609.13;;;19.76;100.00
40920;BME280;26652;50.280;19.026;2022-08-16T04:06:44;97604.69;;;19.81;100.00
40920;BME280;26652;50.280;19.026;2022-08-16T04:08:56;97604.97;;;19.80;100.00
40920;BME280;26652;50.280;19.026;2022-08-16T04:11:13;97610.38;;;19.78;100.00
40920;BME280;26652;50.280;19.026;2022-08-16T04:13:33;97610.66;;;19.67;100.00
40920;BME280;26652;50.280;19.026;2022-08-16T04:15:53;97616.84;;;19.61;100.00
40920;BME280;26652;50.280;19.026;2022-08-16T04:18:22;97614.97;;;19.51;100.00
40920;BME280;26652;50.280;19.026;2022-08-16T04:20:49;97631.22;;;19.41;100.00
40920;BME280;26652;50.280;19.026;2022-08-16T04:23:18;97612.34;;;19.31;100.00
40920;BME280;26652;50.280;19.026;2022-08-16T04:25:41;97614.19;;;19.50;100.00
40920;BME280;26652;50.280;19.026;2022-08-16T04:28:04;97613.50;;;19.65;100.00
40920;BME280;26652;50.280;19.026;2022-08-16T04:30:27;97621.25;;;19.75;100.00
40920;BME280;26652;50.280;19.026;2022-08-16T04:32:49;97628.72;;;19.77;100.00
40920;BME280;26652;50.280;19.026;2022-08-16T04:35:22;97622.78;;;19.81;100.00
40920;BME280;26652;50.280;19.026;2022-08-16T04:37:51;97620.97;;;19.87;100.00
40920;BME280;26652;50.280;19.026;2022-08-16T04:40:14;97628.75;;;20.02;100.00
40920;BME280;26652;50.280;19.026;2022-08-16T04:42:37;97619.94;;;19.93;100.00
40920;BME280;26652;50.280;19.026;2022-08-16T04:45:01;97623.84;;;20.06;100.00
40920;BME280;26652;50.280;19.026;2022-08-16T04:47:24;97622.28;;;20.15;100.00
40920;BME280;26652;50.280;19.026;2022-08-16T04:49:55;97622.81;;;20.12;100.00
40920;BME280;26652;50.280;19.026;2022-08-16T04:52:16;97633.66;;;20.29;100.00
40920;BME280;26652;50.280;19.026;2022-08-16T04:54:38;97633.41;;;20.25;100.00
40920;BME280;26652;50.280;19.026;2022-08-16T04:57:09;97633.91;;;20.38;100.00
40920;BME280;26652;50.280;19.026;2022-08-16T04:59:31;97632.13;;;20.43;100.00
40920;BME280;26652;50.280;19.026;2022-08-16T05:01:43;97630.56;;;20.37;100.00
40920;BME280;26652;50.280;19.026;2022-08-16T05:04:09;97637.31;;;20.38;100.00
40920;BME280;26652;50.280;19.026;2022-08-16T05:06:30;97637.28;;;20.53;100.00
40920;BME280;26652;50.280;19.026;2022-08-16T05:08:54;97634.94;;;20.72;100.00
40920;BME280;26652;50.280;19.026;2022-08-16T05:11:17;97634.38;;;20.80;100.00
40920;BME280;26652;50.280;19.026;2022-08-16T05:13:42;97637.69;;;20.91;100.00
40920;BME280;26652;50.280;19.026;2022-08-16T05:16:17;97638.72;;;20.95;100.00
40920;BME280;26652;50.280;19.026;2022-08-16T05:18:27;97642.59;;;21.03;100.00
40920;BME280;26652;50.280;19.026;2022-08-16T05:20:40;97640.25;;;21.06;100.00
40920;BME280;26652;50.280;19.026;2022-08-16T05:23:00;97646.16;;;21.12;100.00
40920;BME280;26652;50.280;19.026;2022-08-16T05:25:38;97646.66;;;21.19;100.00
40920;BME280;26652;50.280;19.026;2022-08-16T05:27:50;97645.37;;;21.27;100.00
40920;BME280;26652;50.280;19.026;2022-08-16T05:29:59;97663.72;;;21.35;100.00
40920;BME280;26652;50.280;19.026;2022-08-16T05:32:20;97657.75;;;21.35;100.00
40920;BME280;26652;50.280;19.026;2022-08-16T05:34:28;97663.97;;;21.39;100.00
40920;BME280;26652;50.280;19.026;2022-08-16T05:36:37;97669.37;;;21.42;100.00
40920;BME280;26652;50.280;19.026;2022-08-16T05:38:54;97679.19;;;21.50;100.00
40920;BME280;26652;50.280;19.026;2022-08-16T05:41:13;97684.91;;;21.42;100.00
40920;BME280;26652;50.280;19.026;2022-08-16T05:43:22;97689.53;;;21.56;100.00
40920;BME280;26652;50.280;19.026;2022-08-16T05:45:41;97683.28;;;21.62;100.00
40920;BME280;26652;50.280;19.026;2022-08-16T05:47:49;97683.75;;;21.69;100.00
40920;BME280;26652;50.280;19.026;2022-08-16T05:50:16;97689.91;;;21.83;100.00
40920;BME280;26652;50.280;19.026;2022-08-16T05:52:26;97686.72;;;21.91;99.50
40920;BME280;26652;50.280;19.026;2022-08-16T05:54:34;97695.25;;;21.92;100.00
40920;BME280;26652;50.280;19.026;2022-08-16T05:56:43;97696.00;;;22.02;99.47
40920;BME280;26652;50.280;19.026;2022-08-16T05:58:57;97700.16;;;22.03;98.38
40920;BME280;26652;50.280;19.026;2022-08-16T06:01:12;97696.47;;;22.09;99.55
40920;BME280;26652;50.280;19.026;2022-08-16T06:03:21;97698.56;;;22.07;98.35
40920;BME280;26652;50.280;19.026;2022-08-16T06:05:34;97699.53;;;22.16;96.70
40920;BME280;26652;50.280;19.026;2022-08-16T06:07:43;97698.72;;;22.21;95.33
40920;BME280;26652;50.280;19.026;2022-08-16T06:09:53;97697.69;;;22.22;94.91
40920;BME280;26652;50.280;19.026;2022-08-16T06:12:07;97702.56;;;22.29;95.12
40920;BME280;26652;50.280;19.026;2022-08-16T06:14:14;97705.13;;;22.34;93.91
40920;BME280;26652;50.280;19.026;2022-08-16T06:16:27;97706.13;;;22.38;93.37
40920;BME280;26652;50.280;19.026;2022-08-16T06:18:40;97700.47;;;22.31;92.81
40920;BME280;26652;50.280;19.026;2022-08-16T06:20:48;97698.81;;;22.45;93.28
40920;BME280;26652;50.280;19.026;2022-08-16T06:22:57;97706.28;;;22.51;92.94
40920;BME280;26652;50.280;19.026;2022-08-16T06:25:08;97707.28;;;22.56;91.42
40920;BME280;26652;50.280;19.026;2022-08-16T06:27:15;97702.06;;;22.61;92.73
40920;BME280;26652;50.280;19.026;2022-08-16T06:29:21;97710.34;;;22.63;93.56
40920;BME280;26652;50.280;19.026;2022-08-16T06:31:38;97704.97;;;22.54;89.77
40920;BME280;26652;50.280;19.026;2022-08-16T06:33:47;97715.75;;;22.66;89.40
40920;BME280;26652;50.280;19.026;2022-08-16T06:35:55;97710.47;;;22.76;88.97
40920;BME280;26652;50.280;19.026;2022-08-16T06:38:09;97714.37;;;22.79;86.33
40920;BME280;26652;50.280;19.026;2022-08-16T06:40:22;97705.22;;;22.87;87.71
40920;BME280;26652;50.280;19.026;2022-08-16T06:42:37;97704.63;;;22.90;87.65
40920;BME280;26652;50.280;19.026;2022-08-16T06:45:06;97709.97;;;23.03;87.21
40920;BME280;26652;50.280;19.026;2022-08-16T06:47:12;97717.41;;;23.10;83.01
40920;BME280;26652;50.280;19.026;2022-08-16T06:49:18;97722.78;;;23.19;83.72
40920;BME280;26652;50.280;19.026;2022-08-16T06:51:32;97712.63;;;23.22;83.89
40920;BME280;26652;50.280;19.026;2022-08-16T06:53:37;97711.38;;;23.38;81.93
40920;BME280;26652;50.280;19.026;2022-08-16T06:55:47;97711.34;;;23.43;81.45
40920;BME280;26652;50.280;19.026;2022-08-16T06:58:00;97713.38;;;23.46;80.99
40920;BME280;26652;50.280;19.026;2022-08-16T07:00:07;97712.81;;;23.73;81.17
40920;BME280;26652;50.280;19.026;2022-08-16T07:02:25;97711.94;;;23.97;80.93
40920;BME280;26652;50.280;19.026;2022-08-16T07:04:36;97713.91;;;24.24;79.95
40920;BME280;26652;50.280;19.026;2022-08-16T07:06:45;97709.63;;;24.33;77.72
40920;BME280;26652;50.280;19.026;2022-08-16T07:08:53;97706.78;;;24.48;78.07
40920;BME280;26652;50.280;19.026;2022-08-16T07:11:07;97721.28;;;24.68;78.21
40920;BME280;26652;50.280;19.026;2022-08-16T07:13:13;97722.28;;;24.86;76.34
40920;BME280;26652;50.280;19.026;2022-08-16T07:15:20;97724.25;;;25.07;76.56
40920;BME280;26652;50.280;19.026;2022-08-16T07:17:33;97730.91;;;25.27;75.17
40920;BME280;26652;50.280;19.026;2022-08-16T07:19:41;97736.22;;;25.36;73.73
40920;BME280;26652;50.280;19.026;2022-08-16T07:21:54;97728.97;;;25.33;73.50
40920;BME280;26652;50.280;19.026;2022-08-16T07:24:14;97733.59;;;25.36;73.36
40920;BME280;26652;50.280;19.026;2022-08-16T07:26:24;97727.53;;;25.40;73.10
40920;BME280;26652;50.280;19.026;2022-08-16T07:28:30;97717.78;;;25.19;73.25
40920;BME280;26652;50.280;19.026;2022-08-16T07:30:47;97728.59;;;25.26;73.87
40920;BME280;26652;50.280;19.026;2022-08-16T07:33:02;97725.09;;;25.44;76.31
40920;BME280;26652;50.280;19.026;2022-08-16T07:35:11;97714.56;;;25.63;77.38
40920;BME280;26652;50.280;19.026;2022-08-16T07:37:25;97713.56;;;25.86;75.60
40920;BME280;26652;50.280;19.026;2022-08-16T07:39:34;97712.00;;;25.99;72.64
40920;BME280;26652;50.280;19.026;2022-08-16T07:41:46;97712.28;;;25.97;74.26
40920;BME280;26652;50.280;19.026;2022-08-16T07:44:02;97715.72;;;26.06;72.66
40920;BME280;26652;50.280;19.026;2022-08-16T07:46:12;97709.06;;;26.23;73.59
40920;BME280;26652;50.280;19.026;2022-08-16T07:48:21;97715.03;;;26.37;71.76
40920;BME280;26652;50.280;19.026;2022-08-16T07:50:32;97722.63;;;26.47;72.05
40920;BME280;26652;50.280;19.026;2022-08-16T07:52:44;97721.44;;;26.53;70.03
40920;BME280;26652;50.280;19.026;2022-08-16T07:54:52;97718.16;;;26.70;69.88
40920;BME280;26652;50.280;19.026;2022-08-16T07:57:03;97733.53;;;26.71;67.66
40920;BME280;26652;50.280;19.026;2022-08-16T07:59:15;97724.91;;;26.71;68.03
40920;BME280;26652;50.280;19.026;2022-08-16T08:01:27;97728.75;;;26.74;68.22
40920;BME280;26652;50.280;19.026;2022-08-16T08:03:51;97735.28;;;26.85;68.40
40920;BME280;26652;50.280;19.026;2022-08-16T08:06:22;97732.66;;;26.85;68.99
40920;BME280;26652;50.280;19.026;2022-08-16T08:08:43;97735.78;;;26.95;68.63
40920;BME280;26652;50.280;19.026;2022-08-16T08:11:06;97732.00;;;27.10;68.71
40920;BME280;26652;50.280;19.026;2022-08-16T08:13:29;97735.84;;;27.13;66.13
40920;BME280;26652;50.280;19.026;2022-08-16T08:16:01;97740.31;;;27.12;65.51
40920;BME280;26652;50.280;19.026;2022-08-16T08:18:21;97734.63;;;27.10;66.99
40920;BME280;26652;50.280;19.026;2022-08-16T08:20:44;97725.38;;;27.04;66.51
40920;BME280;26652;50.280;19.026;2022-08-16T08:23:07;97733.94;;;26.96;66.24
40920;BME280;26652;50.280;19.026;2022-08-16T08:25:40;97728.50;;;26.84;67.11
40920;BME280;26652;50.280;19.026;2022-08-16T08:27:59;97723.88;;;26.81;66.45
40920;BME280;26652;50.280;19.026;2022-08-16T08:30:26;97732.38;;;26.86;67.50
40920;BME280;26652;50.280;19.026;2022-08-16T08:32:48;97731.63;;;26.94;66.98
40920;BME280;26652;50.280;19.026;2022-08-16T08:35:22;97733.66;;;26.97;65.20
40920;BME280;26652;50.280;19.026;2022-08-16T08:37:42;97733.72;;;27.15;66.23
40920;BME280;26652;50.280;19.026;2022-08-16T08:40:07;97735.09;;;27.03;65.58
40920;BME280;26652;50.280;19.026;2022-08-16T08:42:28;97732.78;;;27.02;65.34
40920;BME280;26652;50.280;19.026;2022-08-16T08:45:03;97736.19;;;27.20;65.24
40920;BME280;26652;50.280;19.026;2022-08-16T08:47:23;97733.59;;;27.28;64.87
40920;BME280;26652;50.280;19.026;2022-08-16T08:49:50;97735.38;;;27.11;64.16
40920;BME280;26652;50.280;19.026;2022-08-16T08:52:15;97735.72;;;27.18;65.84
40920;BME280;26652;50.280;19.026;2022-08-16T08:54:38;97748.25;;;27.38;64.47
40920;BME280;26652;50.280;19.026;2022-08-16T08:57:00;97751.31;;;27.40;65.48
40920;BME280;26652;50.280;19.026;2022-08-16T08:59:30;97741.94;;;27.39;64.89
40920;BME280;26652;50.280;19.026;2022-08-16T09:01:50;97745.34;;;27.48;64.32
40920;BME280;26652;50.280;19.026;2022-08-16T09:04:11;97739.81;;;27.50;64.05
40920;BME280;26652;50.280;19.026;2022-08-16T09:06:35;97738.59;;;27.56;64.40
40920;BME280;26652;50.280;19.026;2022-08-16T09:08:59;97744.91;;;27.55;64.33
40920;BME280;26652;50.280;19.026;2022-08-16T09:11:33;97735.97;;;27.47;65.09
40920;BME280;26652;50.280;19.026;2022-08-16T09:13:56;97741.88;;;27.70;64.62
40920;BME280;26652;50.280;19.026;2022-08-16T09:16:26;97742.81;;;27.83;63.10
40920;BME280;26652;50.280;19.026;2022-08-16T09:18:53;97745.16;;;27.93;62.09
40920;BME280;26652;50.280;19.026;2022-08-16T09:21:16;97749.91;;;27.91;59.28
40920;BME280;26652;50.280;19.026;2022-08-16T09:23:39;97749.75;;;27.87;59.99
40920;BME280;26652;50.280;19.026;2022-08-16T09:25:59;97749.12;;;27.82;58.89
40920;BME280;26652;50.280;19.026;2022-08-16T09:28:22;97742.66;;;27.71;59.83
40920;BME280;26652;50.280;19.026;2022-08-16T09:30:45;97752.53;;;27.82;59.01
40920;BME280;26652;50.280;19.026;2022-08-16T09:33:15;97742.38;;;27.98;58.98
40920;BME280;26652;50.280;19.026;2022-08-16T09:35:37;97740.66;;;28.11;56.81
40920;BME280;26652;50.280;19.026;2022-08-16T09:38:00;97736.19;;;28.11;57.79
40920;BME280;26652;50.280;19.026;2022-08-16T09:40:22;97737.13;;;28.15;58.95
40920;BME280;26652;50.280;19.026;2022-08-16T09:42:43;97738.37;;;28.00;57.98
40920;BME280;26652;50.280;19.026;2022-08-16T09:45:06;97737.91;;;27.98;57.14
40920;BME280;26652;50.280;19.026;2022-08-16T09:47:27;97731.41;;;28.13;57.32
40920;BME280;26652;50.280;19.026;2022-08-16T09:50:09;97736.38;;;28.23;56.68
40920;BME280;26652;50.280;19.026;2022-08-16T09:52:18;97725.88;;;28.32;56.41
40920;BME280;26652;50.280;19.026;2022-08-16T09:54:30;97729.75;;;28.26;55.11
40920;BME280;26652;50.280;19.026;2022-08-16T09:56:53;97736.81;;;28.25;55.21
40920;BME280;26652;50.280;19.026;2022-08-16T09:59:16;97731.59;;;28.34;56.34
40920;BME280;26652;50.280;19.026;2022-08-16T10:01:36;97731.72;;;28.46;56.12
40920;BME280;26652;50.280;19.026;2022-08-16T10:03:56;97733.56;;;28.54;55.37
40920;BME280;26652;50.280;19.026;2022-08-16T10:06:28;97733.69;;;28.58;55.64
40920;BME280;26652;50.280;19.026;2022-08-16T10:08:50;97738.16;;;28.57;54.14
40920;BME280;26652;50.280;19.026;2022-08-16T10:10:59;97725.88;;;28.41;54.70
40920;BME280;26652;50.280;19.026;2022-08-16T10:13:37;97744.63;;;28.60;54.39
40920;BME280;26652;50.280;19.026;2022-08-16T10:15:50;97742.12;;;28.72;54.95
40920;BME280;26652;50.280;19.026;2022-08-16T10:18:06;97740.44;;;28.76;53.32
40920;BME280;26652;50.280;19.026;2022-08-16T10:20:26;97746.44;;;28.77;54.85
40920;BME280;26652;50.280;19.026;2022-08-16T10:22:55;97747.34;;;28.81;53.67
40920;BME280;26652;50.280;19.026;2022-08-16T10:25:18;97743.50;;;28.87;53.00
40920;BME280;26652;50.280;19.026;2022-08-16T10:27:40;97747.34;;;28.98;53.53
40920;BME280;26652;50.280;19.026;2022-08-16T10:30:05;97747.66;;;28.96;54.40
40920;BME280;26652;50.280;19.026;2022-08-16T10:32:24;97750.72;;;28.99;52.76
40920;BME280;26652;50.280;19.026;2022-08-16T10:34:51;97742.25;;;28.93;52.49
40920;BME280;26652;50.280;19.026;2022-08-16T10:37:13;97751.31;;;29.04;52.83
40920;BME280;26652;50.280;19.026;2022-08-16T10:39:36;97743.13;;;29.06;53.26
40920;BME280;26652;50.280;19.026;2022-08-16T10:42:12;97746.00;;;29.13;53.13
40920;BME280;26652;50.280;19.026;2022-08-16T10:44:30;97742.28;;;29.22;53.21
40920;BME280;26652;50.280;19.026;2022-08-16T10:46:47;97743.00;;;29.32;53.25
40920;BME280;26652;50.280;19.026;2022-08-16T10:49:12;97743.00;;;29.32;53.79
40920;BME280;26652;50.280;19.026;2022-08-16T10:51:45;97737.47;;;29.24;52.39
40920;BME280;26652;50.280;19.026;2022-08-16T10:54:09;97732.09;;;29.21;52.68
40920;BME280;26652;50.280;19.026;2022-08-16T10:56:32;97738.37;;;29.28;51.15
40920;BME280;26652;50.280;19.026;2022-08-16T10:58:58;97734.84;;;29.24;52.30
40920;BME280;26652;50.280;19.026;2022-08-16T11:01:27;97732.63;;;29.35;53.65
40920;BME280;26652;50.280;19.026;2022-08-16T11:03:55;97732.13;;;29.50;52.05
40920;BME280;26652;50.280;19.026;2022-08-16T11:06:23;97735.91;;;29.61;51.88
40920;BME280;26652;50.280;19.026;2022-08-16T11:08:43;97737.19;;;29.76;51.96
40920;BME280;26652;50.280;19.026;2022-08-16T11:11:18;97736.38;;;29.84;51.28
40920;BME280;26652;50.280;19.026;2022-08-16T11:13:31;97740.53;;;29.85;52.13
40920;BME280;26652;50.280;19.026;2022-08-16T11:15:40;97731.63;;;29.99;52.14
40920;BME280;26652;50.280;19.026;2022-08-16T11:18:20;97746.56;;;30.07;50.61
40920;BME280;26652;50.280;19.026;2022-08-16T11:20:56;97739.28;;;30.12;49.67
40920;BME280;26652;50.280;19.026;2022-08-16T11:23:25;97736.09;;;30.19;51.08
40920;BME280;26652;50.280;19.026;2022-08-16T11:25:34;97732.22;;;30.37;49.97
40920;BME280;26652;50.280;19.026;2022-08-16T11:27:47;97734.88;;;30.49;49.37
40920;BME280;26652;50.280;19.026;2022-08-16T11:30:11;97734.56;;;29.97;49.07
40920;BME280;26652;50.280;19.026;2022-08-16T11:32:31;97718.78;;;30.06;51.69
40920;BME280;26652;50.280;19.026;2022-08-16T11:34:54;97713.78;;;30.25;47.88
40920;BME280;26652;50.280;19.026;2022-08-16T11:37:16;97709.22;;;30.34;48.33
40920;BME280;26652;50.280;19.026;2022-08-16T11:39:45;97712.88;;;30.42;49.25
40920;BME280;26652;50.280;19.026;2022-08-16T11:42:12;97698.87;;;30.50;47.06
40920;BME280;26652;50.280;19.026;2022-08-16T11:44:35;97718.12;;;30.42;45.36
40920;BME280;26652;50.280;19.026;2022-08-16T11:46:58;97722.31;;;30.55;47.95
40920;BME280;26652;50.280;19.026;2022-08-16T11:49:23;97721.94;;;30.77;46.88
40920;BME280;26652;50.280;19.026;2022-08-16T11:51:47;97725.13;;;30.83;46.20
40920;BME280;26652;50.280;19.026;2022-08-16T11:54:26;97743.72;;;30.78;47.75
40920;BME280;26652;50.280;19.026;2022-08-16T11:56:51;97745.03;;;30.72;49.07
40920;BME280;26652;50.280;19.026;2022-08-16T11:59:10;97737.47;;;30.70;49.54
40920;BME280;26652;50.280;19.026;2022-08-16T12:01:34;97737.28;;;30.75;48.39
40920;BME280;26652;50.280;19.026;2022-08-16T12:03:55;97733.00;;;30.83;49.00
40920;BME280;26652;50.280;19.026;2022-08-16T12:06:19;97732.66;;;30.72;48.37
40920;BME280;26652;50.280;19.026;2022-08-16T12:08:41;97724.34;;;30.82;46.94
40920;BME280;26652;50.280;19.026;2022-08-16T12:11:05;97738.03;;;30.76;46.34